createdAt,value
2019-03-04T00:04:34.822Z,9.81
2019-03-04T00:09:37.793Z,9.94
2019-03-04T00:14:41.187Z,9.98
2019-03-04T00:19:44.410Z,10.07
2019-03-04T00:24:47.970Z,10.02
2019-03-04T00:29:51.541Z,10.05
2019-03-04T00:34:54.506Z,10.08
2019-03-04T00:39:58.166Z,10.02
2019-03-04T00:45:00.663Z,10.02
2019-03-04T00:50:04.970Z,10.01
2019-03-04T00:55:08.136Z,10.00
2019-03-04T01:00:17.283Z,9.93
2019-03-04T01:05:38.590Z,9.99
2019-03-04T01:10:44.716Z,10.03
2019-03-04T01:15:48.338Z,10.11
2019-03-04T01:20:51.188Z,10.04
2019-03-04T01:25:54.141Z,10.06
2019-03-04T01:30:57.203Z,10.08
2019-03-04T01:36:00.003Z,10.04
2019-03-04T01:41:03.313Z,9.95
2019-03-04T01:46:07.160Z,9.96
2019-03-04T01:51:10.344Z,9.79
2019-03-04T01:56:13.308Z,9.83
2019-03-04T02:01:16.359Z,9.82
2019-03-04T02:06:19.904Z,9.66
2019-03-04T02:11:22.790Z,9.65
2019-03-04T02:16:26.351Z,9.61
2019-03-04T02:21:29.721Z,9.58
2019-03-04T02:26:34.159Z,9.64
2019-03-04T02:31:37.637Z,9.58
2019-03-04T02:36:40.566Z,9.60
2019-03-04T02:41:43.778Z,9.64
2019-03-04T02:46:46.987Z,9.73
2019-03-04T02:51:50.400Z,9.84
2019-03-04T02:56:53.310Z,9.84
2019-03-04T03:01:56.471Z,9.85
2019-03-04T03:06:59.596Z,9.85
2019-03-04T03:12:02.121Z,9.82
2019-03-04T03:17:05.025Z,9.82
2019-03-04T03:22:08.233Z,9.83
2019-03-04T03:27:11.133Z,9.81
2019-03-04T03:32:14.346Z,9.89
2019-03-04T03:37:17.243Z,9.94
2019-03-04T03:42:20.455Z,9.93
2019-03-04T03:47:22.975Z,9.94
2019-03-04T03:52:25.538Z,9.99
2019-03-04T03:57:29.122Z,9.93
2019-03-04T04:02:32.026Z,10.08
2019-03-04T04:07:35.547Z,10.14
2019-03-04T04:12:38.818Z,10.15
2019-03-04T04:17:41.837Z,10.28
2019-03-04T04:22:44.670Z,10.33
2019-03-04T04:27:48.246Z,10.35
2019-03-04T04:32:51.207Z,10.37
2019-03-04T04:37:54.435Z,10.40
2019-03-04T04:42:57.942Z,10.40
2019-03-04T04:48:01.163Z,10.36
2019-03-04T04:53:04.067Z,10.39
2019-03-04T04:58:07.246Z,10.54
2019-03-04T05:03:10.174Z,10.56
2019-03-04T05:08:13.673Z,10.57
2019-03-04T05:13:17.224Z,10.61
2019-03-04T05:18:20.418Z,10.57
2019-03-04T05:23:23.646Z,10.56
2019-03-04T05:28:27.150Z,10.55
2019-03-04T05:33:30.046Z,10.55
2019-03-04T05:38:33.258Z,10.56
2019-03-04T05:43:36.172Z,10.57
2019-03-04T05:48:39.367Z,10.58
2019-03-04T05:53:42.570Z,10.59
2019-03-04T05:58:45.407Z,10.45
2019-03-04T06:03:48.788Z,10.25
2019-03-04T06:08:51.654Z,10.21
2019-03-04T06:13:54.502Z,10.15
2019-03-04T06:18:57.708Z,10.00
2019-03-04T06:24:00.613Z,9.97
2019-03-04T06:29:03.914Z,10.05
2019-03-04T06:34:07.105Z,10.06
2019-03-04T06:39:10.352Z,10.11
2019-03-04T06:44:13.665Z,10.26
2019-03-04T06:49:17.162Z,10.34
2019-03-04T06:54:54.116Z,10.32
2019-03-04T07:00:48.591Z,10.34
2019-03-04T07:05:52.904Z,10.47
2019-03-04T07:10:56.137Z,10.61
2019-03-04T07:15:59.436Z,10.69
2019-03-04T07:21:02.628Z,10.70
2019-03-04T07:26:05.882Z,10.77
2019-03-04T07:31:08.357Z,10.83
2019-03-04T07:36:11.964Z,10.88
2019-03-04T07:41:14.879Z,10.93
2019-03-04T07:46:18.107Z,10.96
2019-03-04T07:51:20.998Z,11.02
2019-03-04T07:56:24.545Z,11.10
2019-03-04T08:01:27.517Z,11.15
2019-03-04T08:06:30.742Z,11.13
2019-03-04T08:12:22.997Z,11.20
2019-03-04T08:17:25.661Z,11.19
2019-03-04T08:22:28.588Z,11.18
2019-03-04T08:27:31.912Z,11.23
2019-03-04T08:32:34.792Z,11.36
2019-03-04T08:37:38.365Z,11.44
2019-03-04T08:42:41.640Z,11.58
2019-03-04T08:47:44.526Z,11.72
2019-03-04T08:52:47.700Z,11.93
2019-03-04T08:57:51.248Z,11.97
2019-03-04T09:02:54.423Z,12.04
2019-03-04T09:07:57.705Z,12.05
2019-03-04T09:13:00.949Z,12.14
2019-03-04T09:18:04.693Z,11.95
2019-03-04T09:23:07.618Z,9.61
2019-03-04T09:28:10.935Z,8.81
2019-03-04T09:33:14.446Z,8.53
2019-03-04T09:38:17.806Z,8.61
2019-03-04T09:43:21.429Z,8.41
2019-03-04T09:48:25.011Z,8.31
2019-03-04T09:53:28.267Z,8.08
2019-03-04T09:58:30.877Z,8.01
2019-03-04T10:04:33.918Z,7.97
2019-03-04T10:10:08.088Z,7.99
2019-03-04T10:15:44.184Z,7.99
2019-03-04T10:21:17.707Z,8.19
2019-03-04T10:27:06.763Z,8.47
2019-03-04T10:32:54.189Z,8.76
2019-03-04T10:38:11.403Z,8.77
2019-03-04T10:43:30.940Z,8.78
2019-03-04T10:48:33.581Z,8.73
2019-03-04T10:53:36.530Z,8.69
2019-03-04T10:58:40.054Z,8.68
2019-03-04T11:03:43.446Z,8.77
2019-03-04T11:08:46.967Z,8.84
2019-03-04T11:13:50.484Z,8.79
2019-03-04T11:18:54.041Z,8.83
2019-03-04T11:23:57.938Z,8.99
2019-03-04T11:29:00.684Z,8.93
2019-03-04T11:34:04.334Z,9.05
2019-03-04T11:39:25.588Z,8.98
2019-03-04T11:44:28.780Z,8.69
2019-03-04T11:49:31.772Z,7.72
2019-03-04T11:54:35.186Z,7.44
2019-03-04T11:59:38.544Z,7.07
2019-03-04T12:04:42.604Z,6.95
2019-03-04T12:09:45.768Z,6.60
2019-03-04T12:14:48.978Z,6.55
2019-03-04T12:19:52.599Z,6.76
2019-03-04T12:24:55.801Z,6.57
2019-03-04T12:29:58.732Z,6.58
2019-03-04T12:35:02.342Z,6.60
2019-03-04T12:40:07.330Z,6.85
2019-03-04T12:45:12.784Z,6.72
2019-03-04T12:50:21.224Z,6.84
2019-03-04T12:55:24.818Z,6.71
2019-03-04T13:00:28.019Z,6.79
2019-03-04T13:05:31.632Z,7.00
2019-03-04T13:10:34.616Z,6.94
2019-03-04T13:15:37.541Z,7.07
2019-03-04T13:20:40.425Z,7.68
2019-03-04T13:25:43.805Z,7.78
2019-03-04T13:30:47.070Z,7.66
2019-03-04T13:35:50.378Z,7.67
2019-03-04T13:40:55.992Z,7.53
2019-03-04T13:45:58.843Z,7.38
2019-03-04T13:51:02.480Z,7.50
2019-03-04T13:56:05.979Z,7.36
2019-03-04T14:01:09.400Z,7.35
2019-03-04T14:06:13.376Z,7.32
2019-03-04T14:11:16.746Z,7.24
2019-03-04T14:16:19.958Z,7.22
2019-03-04T14:21:23.130Z,7.08
2019-03-04T14:26:26.366Z,7.10
2019-03-04T14:31:28.861Z,6.90
2019-03-04T14:36:32.195Z,6.67
2019-03-04T14:41:35.677Z,6.35
2019-03-04T14:46:38.593Z,6.19
2019-03-04T14:51:41.802Z,6.12
2019-03-04T14:56:44.374Z,6.02
2019-03-04T15:01:47.273Z,6.05
2019-03-04T15:06:50.534Z,6.04
2019-03-04T15:11:53.416Z,6.09
2019-03-04T15:17:03.342Z,6.05
2019-03-04T15:22:02.304Z,5.98
2019-03-04T15:27:06.649Z,5.98
2019-03-04T15:32:10.928Z,5.90
2019-03-04T15:37:16.206Z,5.91
2019-03-04T15:42:19.531Z,5.91
2019-03-04T15:47:22.848Z,5.87
2019-03-04T15:52:25.424Z,5.89
2019-03-04T15:57:28.765Z,5.92
2019-03-04T16:02:32.164Z,6.05
2019-03-04T16:07:35.592Z,5.88
2019-03-04T16:12:38.755Z,5.89
2019-03-04T16:17:41.295Z,5.95
2019-03-04T16:22:44.846Z,5.98
2019-03-04T16:27:48.423Z,6.12
2019-03-04T16:32:52.056Z,6.04
2019-03-04T16:37:55.618Z,6.13
2019-03-04T16:42:59.202Z,6.19
2019-03-04T16:48:02.295Z,6.23
2019-03-04T16:53:06.031Z,6.15
2019-03-04T16:58:09.582Z,6.19
2019-03-04T17:03:13.305Z,6.19
2019-03-04T17:08:16.257Z,6.26
2019-03-04T17:13:19.268Z,6.34
2019-03-04T17:18:22.173Z,6.22
2019-03-04T17:23:24.768Z,6.28
2019-03-04T17:28:28.320Z,6.23
2019-03-04T17:33:31.696Z,6.25
2019-03-04T17:38:35.318Z,6.30
2019-03-04T17:43:38.588Z,6.18
2019-03-04T17:48:42.447Z,6.21
2019-03-04T17:53:46.052Z,6.22
2019-03-04T17:58:49.244Z,6.23
2019-03-04T18:03:54.485Z,6.26
2019-03-04T18:08:58.167Z,6.25
2019-03-04T18:14:01.393Z,6.23
2019-03-04T18:19:04.923Z,6.33
2019-03-04T18:24:08.662Z,6.29
2019-03-04T18:29:39.668Z,6.28
2019-03-04T18:35:13.275Z,6.35
2019-03-04T18:40:47.800Z,6.32
2019-03-04T18:46:19.642Z,6.26
2019-03-04T18:51:22.811Z,6.30
2019-03-04T18:56:26.410Z,6.35
2019-03-04T19:01:30.057Z,6.46
2019-03-04T19:06:35.555Z,6.32
2019-03-04T19:11:42.681Z,6.41
2019-03-04T19:16:47.787Z,6.46
2019-03-04T19:21:55.022Z,6.55
2019-03-04T19:27:02.725Z,6.52
2019-03-04T19:32:10.200Z,6.54
2019-03-04T19:37:18.208Z,6.58
2019-03-04T19:42:28.261Z,6.48
2019-03-04T19:47:35.705Z,6.62
2019-03-04T19:52:44.200Z,6.69
2019-03-04T19:57:51.591Z,6.75
2019-03-04T20:02:59.138Z,6.77
2019-03-04T20:08:09.078Z,6.83
2019-03-04T20:13:16.825Z,6.85
2019-03-04T20:18:21.208Z,6.86
2019-03-04T20:23:25.246Z,6.90
2019-03-04T20:28:32.430Z,6.89
2019-03-04T20:33:39.646Z,6.90
2019-03-04T20:38:48.745Z,6.87
2019-03-04T20:43:55.983Z,6.92
2019-03-04T20:49:03.855Z,6.93
2019-03-04T20:54:11.697Z,6.90
2019-03-04T20:59:18.621Z,6.96
2019-03-04T21:04:25.772Z,6.97
2019-03-04T21:09:33.090Z,6.93
2019-03-04T21:14:40.030Z,7.00
2019-03-04T21:19:44.863Z,6.94
2019-03-04T21:24:48.922Z,6.95
2019-03-04T21:30:42.846Z,7.06
2019-03-04T21:36:19.872Z,7.01
2019-03-04T21:41:43.349Z,7.05
2019-03-04T21:47:08.887Z,7.06
2019-03-04T21:52:37.801Z,6.94
2019-03-04T21:57:46.834Z,7.00
2019-03-04T22:02:56.698Z,6.92
2019-03-04T22:08:00.304Z,6.98
2019-03-04T22:13:04.117Z,7.01
2019-03-04T22:18:08.615Z,6.96
2019-03-04T22:23:11.132Z,6.95
2019-03-04T22:28:14.334Z,6.93
2019-03-04T22:33:17.933Z,6.89
2019-03-04T22:38:21.268Z,6.84
2019-03-04T22:43:24.178Z,6.90
2019-03-04T22:48:27.698Z,6.83
2019-03-04T22:53:30.610Z,6.74
2019-03-04T22:58:34.115Z,6.80
2019-03-04T23:03:37.333Z,6.86
2019-03-04T23:08:40.644Z,6.79
2019-03-04T23:13:53.004Z,6.83
2019-03-04T23:18:56.482Z,6.84
2019-03-04T23:24:00.017Z,6.87
2019-03-04T23:29:03.824Z,6.86
2019-03-04T23:34:07.388Z,6.80
2019-03-04T23:39:10.635Z,6.87
2019-03-04T23:44:14.387Z,6.92
2019-03-04T23:49:17.936Z,7.01
2019-03-04T23:54:22.389Z,6.88
2019-03-04T23:59:25.707Z,7.04
